sensor_id;sensor_type;location;lat;lon;timestamp;P1;durP1;ratioP1;P2;durP2;ratioP2
59702;SDS011;45570;48.782;8.332;2023-03-22T00:02:31;3.50;;;2.50;;
59702;SDS011;45570;48.782;8.332;2023-03-22T00:05:00;3.15;;;2.50;;
59702;SDS011;45570;48.782;8.332;2023-03-22T00:07:28;5.47;;;2.83;;
59702;SDS011;45570;48.782;8.332;2023-03-22T00:09:57;4.97;;;2.95;;
59702;SDS011;45570;48.782;8.332;2023-03-22T00:12:25;6.35;;;3.00;;
59702;SDS011;45570;48.782;8.332;2023-03-22T00:14:54;3.92;;;2.80;;
59702;SDS011;45570;48.782;8.332;2023-03-22T00:17:22;5.32;;;3.22;;
59702;SDS011;45570;48.782;8.332;2023-03-22T00:19:54;5.15;;;2.70;;
59702;SDS011;45570;48.782;8.332;2023-03-22T00:22:24;5.90;;;3.08;;
59702;SDS011;45570;48.782;8.332;2023-03-22T00:24:52;5.22;;;2.92;;
59702;SDS011;45570;48.782;8.332;2023-03-22T00:27:21;6.15;;;2.72;;
59702;SDS011;45570;48.782;8.332;2023-03-22T00:29:50;6.03;;;2.65;;
59702;SDS011;45570;48.782;8.332;2023-03-22T00:32:19;4.40;;;2.60;;
59702;SDS011;45570;48.782;8.332;2023-03-22T00:34:48;3.40;;;2.50;;
59702;SDS011;45570;48.782;8.332;2023-03-22T00:37:18;3.00;;;2.50;;
59702;SDS011;45570;48.782;8.332;2023-03-22T00:39:47;6.22;;;2.35;;
59702;SDS011;45570;48.782;8.332;2023-03-22T00:42:15;2.35;;;2.05;;
59702;SDS011;45570;48.782;8.332;2023-03-22T00:44:46;3.50;;;2.30;;
59702;SDS011;45570;48.782;8.332;2023-03-22T00:47:15;4.68;;;2.70;;
59702;SDS011;45570;48.782;8.332;2023-03-22T00:49:43;5.88;;;2.72;;
59702;SDS011;45570;48.782;8.332;2023-03-22T00:52:12;4.03;;;2.30;;
59702;SDS011;45570;48.782;8.332;2023-03-22T00:54:42;12.57;;;2.67;;
59702;SDS011;45570;48.782;8.332;2023-03-22T00:57:11;7.40;;;3.00;;
59702;SDS011;45570;48.782;8.332;2023-03-22T00:59:40;5.40;;;2.90;;
59702;SDS011;45570;48.782;8.332;2023-03-22T01:02:08;4.75;;;2.88;;
59702;SDS011;45570;48.782;8.332;2023-03-22T01:04:39;4.80;;;2.88;;
59702;SDS011;45570;48.782;8.332;2023-03-22T01:07:12;3.53;;;2.90;;
59702;SDS011;45570;48.782;8.332;2023-03-22T01:09:44;3.30;;;2.20;;
59702;SDS011;45570;48.782;8.332;2023-03-22T01:12:13;4.97;;;2.63;;
59702;SDS011;45570;48.782;8.332;2023-03-22T01:14:43;3.17;;;2.10;;
59702;SDS011;45570;48.782;8.332;2023-03-22T01:17:12;6.43;;;2.38;;
59702;SDS011;45570;48.782;8.332;2023-03-22T01:19:41;3.90;;;2.38;;
59702;SDS011;45570;48.782;8.332;2023-03-22T01:22:09;5.50;;;2.83;;
59702;SDS011;45570;48.782;8.332;2023-03-22T01:24:38;2.97;;;2.30;;
59702;SDS011;45570;48.782;8.332;2023-03-22T01:27:08;5.10;;;3.05;;
59702;SDS011;45570;48.782;8.332;2023-03-22T01:29:37;8.43;;;2.55;;
59702;SDS011;45570;48.782;8.332;2023-03-22T01:32:06;4.55;;;3.13;;
59702;SDS011;45570;48.782;8.332;2023-03-22T01:34:35;3.97;;;3.10;;
59702;SDS011;45570;48.782;8.332;2023-03-22T01:37:04;5.55;;;2.72;;
59702;SDS011;45570;48.782;8.332;2023-03-22T01:39:34;6.25;;;2.28;;
59702;SDS011;45570;48.782;8.332;2023-03-22T01:42:09;4.63;;;2.72;;
59702;SDS011;45570;48.782;8.332;2023-03-22T01:44:41;6.82;;;3.10;;
59702;SDS011;45570;48.782;8.332;2023-03-22T01:47:12;3.03;;;2.47;;
59702;SDS011;45570;48.782;8.332;2023-03-22T01:49:41;5.03;;;3.05;;
59702;SDS011;45570;48.782;8.332;2023-03-22T01:52:11;4.13;;;2.55;;
59702;SDS011;45570;48.782;8.332;2023-03-22T01:54:53;9.35;;;3.13;;
59702;SDS011;45570;48.782;8.332;2023-03-22T01:57:36;7.18;;;2.83;;
59702;SDS011;45570;48.782;8.332;2023-03-22T02:00:12;3.65;;;2.60;;
59702;SDS011;45570;48.782;8.332;2023-03-22T02:03:02;5.43;;;2.72;;
59702;SDS011;45570;48.782;8.332;2023-03-22T02:05:38;3.50;;;2.78;;
59702;SDS011;45570;48.782;8.332;2023-03-22T02:08:08;4.38;;;2.90;;
59702;SDS011;45570;48.782;8.332;2023-03-22T02:10:58;7.45;;;2.78;;
59702;SDS011;45570;48.782;8.332;2023-03-22T02:13:36;4.78;;;2.60;;
59702;SDS011;45570;48.782;8.332;2023-03-22T02:16:33;3.97;;;2.60;;
59702;SDS011;45570;48.782;8.332;2023-03-22T02:19:21;8.63;;;3.10;;
59702;SDS011;45570;48.782;8.332;2023-03-22T02:22:16;6.47;;;2.88;;
59702;SDS011;45570;48.782;8.332;2023-03-22T02:25:17;3.67;;;2.67;;
59702;SDS011;45570;48.782;8.332;2023-03-22T02:40:35;7.10;;;2.83;;
59702;SDS011;45570;48.782;8.332;2023-03-22T02:45:44;6.93;;;2.58;;
59702;SDS011;45570;48.782;8.332;2023-03-22T02:48:16;3.40;;;2.72;;
59702;SDS011;45570;48.782;8.332;2023-03-22T02:50:51;3.83;;;2.55;;
59702;SDS011;45570;48.782;8.332;2023-03-22T02:53:23;3.25;;;2.50;;
59702;SDS011;45570;48.782;8.332;2023-03-22T02:55:59;3.90;;;2.55;;
59702;SDS011;45570;48.782;8.332;2023-03-22T02:58:31;5.72;;;2.97;;
59702;SDS011;45570;48.782;8.332;2023-03-22T03:01:05;4.95;;;3.13;;
59702;SDS011;45570;48.782;8.332;2023-03-22T03:03:38;2.90;;;2.35;;
59702;SDS011;45570;48.782;8.332;2023-03-22T03:06:07;6.25;;;2.67;;
59702;SDS011;45570;48.782;8.332;2023-03-22T03:08:40;5.95;;;3.42;;
59702;SDS011;45570;48.782;8.332;2023-03-22T03:11:14;4.75;;;2.35;;
59702;SDS011;45570;48.782;8.332;2023-03-22T03:13:45;5.53;;;2.85;;
59702;SDS011;45570;48.782;8.332;2023-03-22T03:16:14;8.52;;;2.72;;
59702;SDS011;45570;48.782;8.332;2023-03-22T03:18:46;3.88;;;2.70;;
59702;SDS011;45570;48.782;8.332;2023-03-22T03:23:57;4.45;;;2.58;;
59702;SDS011;45570;48.782;8.332;2023-03-22T03:26:38;5.68;;;3.17;;
59702;SDS011;45570;48.782;8.332;2023-03-22T03:29:15;4.07;;;2.83;;
59702;SDS011;45570;48.782;8.332;2023-03-22T03:31:51;4.25;;;3.22;;
59702;SDS011;45570;48.782;8.332;2023-03-22T03:34:23;7.85;;;3.13;;
59702;SDS011;45570;48.782;8.332;2023-03-22T03:36:55;4.35;;;2.95;;
59702;SDS011;45570;48.782;8.332;2023-03-22T03:39:29;5.20;;;3.17;;
59702;SDS011;45570;48.782;8.332;2023-03-22T03:42:02;6.55;;;2.92;;
59702;SDS011;45570;48.782;8.332;2023-03-22T03:44:33;4.13;;;2.92;;
59702;SDS011;45570;48.782;8.332;2023-03-22T03:47:03;6.82;;;3.50;;
59702;SDS011;45570;48.782;8.332;2023-03-22T03:49:34;6.70;;;3.17;;
59702;SDS011;45570;48.782;8.332;2023-03-22T03:52:04;4.72;;;2.80;;
59702;SDS011;45570;48.782;8.332;2023-03-22T03:54:33;4.47;;;2.83;;
59702;SDS011;45570;48.782;8.332;2023-03-22T03:57:06;7.05;;;3.22;;
59702;SDS011;45570;48.782;8.332;2023-03-22T03:59:35;6.15;;;3.30;;
59702;SDS011;45570;48.782;8.332;2023-03-22T04:02:11;5.15;;;3.28;;
59702;SDS011;45570;48.782;8.332;2023-03-22T04:04:40;3.35;;;2.53;;
59702;SDS011;45570;48.782;8.332;2023-03-22T04:07:09;7.35;;;2.88;;
59702;SDS011;45570;48.782;8.332;2023-03-22T04:09:38;3.60;;;2.78;;
59702;SDS011;45570;48.782;8.332;2023-03-22T04:12:15;4.35;;;3.05;;
59702;SDS011;45570;48.782;8.332;2023-03-22T04:15:04;5.75;;;2.85;;
59702;SDS011;45570;48.782;8.332;2023-03-22T04:17:34;4.10;;;3.15;;
59702;SDS011;45570;48.782;8.332;2023-03-22T04:20:04;4.13;;;2.70;;
59702;SDS011;45570;48.782;8.332;2023-03-22T04:22:35;4.65;;;2.70;;
59702;SDS011;45570;48.782;8.332;2023-03-22T04:25:05;7.00;;;3.35;;
59702;SDS011;45570;48.782;8.332;2023-03-22T04:27:43;5.32;;;2.95;;
59702;SDS011;45570;48.782;8.332;2023-03-22T04:30:17;5.45;;;2.97;;
59702;SDS011;45570;48.782;8.332;2023-03-22T04:33:00;5.68;;;3.00;;
59702;SDS011;45570;48.782;8.332;2023-03-22T04:35:52;4.60;;;2.70;;
59702;SDS011;45570;48.782;8.332;2023-03-22T04:38:30;2.63;;;2.38;;
59702;SDS011;45570;48.782;8.332;2023-03-22T04:40:58;3.83;;;2.95;;
59702;SDS011;45570;48.782;8.332;2023-03-22T04:43:36;4.75;;;3.00;;
59702;SDS011;45570;48.782;8.332;2023-03-22T04:46:10;5.57;;;3.72;;
59702;SDS011;45570;48.782;8.332;2023-03-22T04:48:55;7.00;;;3.30;;
59702;SDS011;45570;48.782;8.332;2023-03-22T04:51:25;5.20;;;2.67;;
59702;SDS011;45570;48.782;8.332;2023-03-22T04:54:13;5.75;;;2.92;;
59702;SDS011;45570;48.782;8.332;2023-03-22T04:56:43;4.45;;;3.00;;
59702;SDS011;45570;48.782;8.332;2023-03-22T04:59:15;5.55;;;2.88;;
59702;SDS011;45570;48.782;8.332;2023-03-22T05:01:48;4.30;;;3.00;;
59702;SDS011;45570;48.782;8.332;2023-03-22T05:04:22;5.30;;;3.35;;
59702;SDS011;45570;48.782;8.332;2023-03-22T05:07:05;6.97;;;3.03;;
59702;SDS011;45570;48.782;8.332;2023-03-22T05:09:43;3.42;;;2.88;;
59702;SDS011;45570;48.782;8.332;2023-03-22T05:12:12;6.22;;;3.53;;
59702;SDS011;45570;48.782;8.332;2023-03-22T05:15:06;5.53;;;2.92;;
59702;SDS011;45570;48.782;8.332;2023-03-22T05:17:37;5.35;;;3.10;;
59702;SDS011;45570;48.782;8.332;2023-03-22T05:20:06;3.92;;;2.75;;
59702;SDS011;45570;48.782;8.332;2023-03-22T05:22:38;6.03;;;2.90;;
59702;SDS011;45570;48.782;8.332;2023-03-22T05:25:09;5.55;;;3.35;;
59702;SDS011;45570;48.782;8.332;2023-03-22T05:27:42;5.18;;;3.60;;
59702;SDS011;45570;48.782;8.332;2023-03-22T05:30:38;7.22;;;3.38;;
59702;SDS011;45570;48.782;8.332;2023-03-22T05:33:20;5.05;;;3.30;;
59702;SDS011;45570;48.782;8.332;2023-03-22T05:35:52;7.13;;;3.38;;
59702;SDS011;45570;48.782;8.332;2023-03-22T05:38:23;4.75;;;3.13;;
59702;SDS011;45570;48.782;8.332;2023-03-22T05:40:55;4.57;;;3.00;;
59702;SDS011;45570;48.782;8.332;2023-03-22T05:43:24;4.50;;;3.08;;
59702;SDS011;45570;48.782;8.332;2023-03-22T05:45:54;7.25;;;3.85;;
59702;SDS011;45570;48.782;8.332;2023-03-22T05:48:58;3.53;;;2.80;;
59702;SDS011;45570;48.782;8.332;2023-03-22T05:51:26;7.07;;;2.75;;
59702;SDS011;45570;48.782;8.332;2023-03-22T05:53:55;6.30;;;3.00;;
59702;SDS011;45570;48.782;8.332;2023-03-22T05:56:31;6.78;;;2.97;;
59702;SDS011;45570;48.782;8.332;2023-03-22T05:59:04;7.50;;;3.53;;
59702;SDS011;45570;48.782;8.332;2023-03-22T06:01:35;6.28;;;3.90;;
59702;SDS011;45570;48.782;8.332;2023-03-22T06:04:21;7.07;;;3.22;;
59702;SDS011;45570;48.782;8.332;2023-03-22T06:07:03;9.77;;;4.00;;
59702;SDS011;45570;48.782;8.332;2023-03-22T06:12:20;4.25;;;3.28;;
59702;SDS011;45570;48.782;8.332;2023-03-22T06:15:11;6.32;;;3.85;;
59702;SDS011;45570;48.782;8.332;2023-03-22T06:18:00;8.30;;;3.80;;
59702;SDS011;45570;48.782;8.332;2023-03-22T06:20:34;5.95;;;3.17;;
59702;SDS011;45570;48.782;8.332;2023-03-22T06:23:18;3.85;;;3.03;;
59702;SDS011;45570;48.782;8.332;2023-03-22T06:25:47;6.95;;;3.50;;
59702;SDS011;45570;48.782;8.332;2023-03-22T06:28:16;4.60;;;3.15;;
59702;SDS011;45570;48.782;8.332;2023-03-22T06:30:51;6.10;;;3.42;;
59702;SDS011;45570;48.782;8.332;2023-03-22T06:33:24;6.63;;;3.42;;
59702;SDS011;45570;48.782;8.332;2023-03-22T06:36:02;5.47;;;3.45;;
59702;SDS011;45570;48.782;8.332;2023-03-22T06:38:38;7.85;;;3.92;;
59702;SDS011;45570;48.782;8.332;2023-03-22T06:41:06;4.65;;;3.42;;
59702;SDS011;45570;48.782;8.332;2023-03-22T06:43:35;5.43;;;3.83;;
59702;SDS011;45570;48.782;8.332;2023-03-22T06:46:14;5.65;;;3.35;;
59702;SDS011;45570;48.782;8.332;2023-03-22T06:48:53;6.65;;;3.45;;
59702;SDS011;45570;48.782;8.332;2023-03-22T06:51:22;7.07;;;3.67;;
59702;SDS011;45570;48.782;8.332;2023-03-22T06:53:51;9.45;;;3.22;;
59702;SDS011;45570;48.782;8.332;2023-03-22T06:56:20;10.65;;;3.85;;
59702;SDS011;45570;48.782;8.332;2023-03-22T06:58:51;3.47;;;2.75;;
59702;SDS011;45570;48.782;8.332;2023-03-22T07:01:23;6.72;;;3.50;;
59702;SDS011;45570;48.782;8.332;2023-03-22T07:03:55;4.03;;;3.03;;
59702;SDS011;45570;48.782;8.332;2023-03-22T07:06:24;6.03;;;3.13;;
59702;SDS011;45570;48.782;8.332;2023-03-22T07:08:53;5.32;;;3.35;;
59702;SDS011;45570;48.782;8.332;2023-03-22T07:11:27;3.20;;;2.60;;
59702;SDS011;45570;48.782;8.332;2023-03-22T07:13:58;4.68;;;3.03;;
59702;SDS011;45570;48.782;8.332;2023-03-22T07:16:56;6.32;;;3.38;;
59702;SDS011;45570;48.782;8.332;2023-03-22T07:19:28;6.15;;;2.88;;
59702;SDS011;45570;48.782;8.332;2023-03-22T07:22:02;7.57;;;2.72;;
59702;SDS011;45570;48.782;8.332;2023-03-22T07:24:32;4.88;;;3.10;;
59702;SDS011;45570;48.782;8.332;2023-03-22T07:27:06;7.28;;;2.95;;
59702;SDS011;45570;48.782;8.332;2023-03-22T07:29:35;5.88;;;2.63;;
59702;SDS011;45570;48.782;8.332;2023-03-22T07:32:04;4.95;;;3.50;;
59702;SDS011;45570;48.782;8.332;2023-03-22T07:34:52;4.75;;;2.53;;
59702;SDS011;45570;48.782;8.332;2023-03-22T07:37:21;6.85;;;3.47;;
59702;SDS011;45570;48.782;8.332;2023-03-22T07:39:50;7.80;;;3.17;;
59702;SDS011;45570;48.782;8.332;2023-03-22T07:42:18;6.07;;;2.75;;
59702;SDS011;45570;48.782;8.332;2023-03-22T07:45:06;5.32;;;3.30;;
59702;SDS011;45570;48.782;8.332;2023-03-22T07:47:58;4.38;;;2.60;;
59702;SDS011;45570;48.782;8.332;2023-03-22T07:50:47;4.78;;;2.45;;
59702;SDS011;45570;48.782;8.332;2023-03-22T07:53:16;2.45;;;2.08;;
59702;SDS011;45570;48.782;8.332;2023-03-22T07:55:45;3.00;;;2.40;;
59702;SDS011;45570;48.782;8.332;2023-03-22T07:58:14;3.30;;;2.42;;
59702;SDS011;45570;48.782;8.332;2023-03-22T08:00:43;4.28;;;2.42;;
59702;SDS011;45570;48.782;8.332;2023-03-22T08:03:41;5.53;;;2.10;;
59702;SDS011;45570;48.782;8.332;2023-03-22T08:06:22;4.78;;;1.90;;
59702;SDS011;45570;48.782;8.332;2023-03-22T08:08:50;6.00;;;2.30;;
59702;SDS011;45570;48.782;8.332;2023-03-22T08:11:19;1.73;;;1.50;;
59702;SDS011;45570;48.782;8.332;2023-03-22T08:13:48;3.35;;;1.67;;
59702;SDS011;45570;48.782;8.332;2023-03-22T08:16:17;2.92;;;1.10;;
59702;SDS011;45570;48.782;8.332;2023-03-22T08:18:46;2.50;;;1.05;;
59702;SDS011;45570;48.782;8.332;2023-03-22T08:21:14;3.22;;;0.80;;
59702;SDS011;45570;48.782;8.332;2023-03-22T08:23:50;2.15;;;1.13;;
59702;SDS011;45570;48.782;8.332;2023-03-22T08:26:27;1.55;;;1.02;;
59702;SDS011;45570;48.782;8.332;2023-03-22T08:29:06;1.15;;;0.75;;
59702;SDS011;45570;48.782;8.332;2023-03-22T08:31:36;2.13;;;0.85;;
59702;SDS011;45570;48.782;8.332;2023-03-22T08:34:04;1.30;;;0.80;;
59702;SDS011;45570;48.782;8.332;2023-03-22T08:36:33;3.50;;;0.90;;
59702;SDS011;45570;48.782;8.332;2023-03-22T08:39:04;1.40;;;0.75;;
59702;SDS011;45570;48.782;8.332;2023-03-22T08:42:03;1.23;;;0.60;;
59702;SDS011;45570;48.782;8.332;2023-03-22T08:44:34;2.38;;;1.23;;
59702;SDS011;45570;48.782;8.332;2023-03-22T08:47:04;1.02;;;0.90;;
59702;SDS011;45570;48.782;8.332;2023-03-22T08:49:33;4.30;;;1.00;;
59702;SDS011;45570;48.782;8.332;2023-03-22T08:52:10;2.08;;;0.70;;
59702;SDS011;45570;48.782;8.332;2023-03-22T08:54:53;1.30;;;0.82;;
59702;SDS011;45570;48.782;8.332;2023-03-22T08:57:40;1.48;;;0.80;;
59702;SDS011;45570;48.782;8.332;2023-03-22T09:00:27;1.73;;;0.70;;
59702;SDS011;45570;48.782;8.332;2023-03-22T09:03:42;1.20;;;0.88;;
59702;SDS011;45570;48.782;8.332;2023-03-22T09:06:11;0.77;;;0.77;;
59702;SDS011;45570;48.782;8.332;2023-03-22T09:08:41;1.40;;;0.98;;
59702;SDS011;45570;48.782;8.332;2023-03-22T09:11:14;1.58;;;0.90;;
59702;SDS011;45570;48.782;8.332;2023-03-22T09:13:46;1.58;;;1.15;;
59702;SDS011;45570;48.782;8.332;2023-03-22T09:16:15;2.03;;;1.00;;
59702;SDS011;45570;48.782;8.332;2023-03-22T09:18:45;2.40;;;0.93;;
59702;SDS011;45570;48.782;8.332;2023-03-22T09:21:16;1.70;;;0.90;;
59702;SDS011;45570;48.782;8.332;2023-03-22T09:26:27;2.22;;;1.20;;
59702;SDS011;45570;48.782;8.332;2023-03-22T09:28:58;1.45;;;1.00;;
59702;SDS011;45570;48.782;8.332;2023-03-22T09:31:27;1.80;;;1.20;;
59702;SDS011;45570;48.782;8.332;2023-03-22T09:34:06;1.05;;;0.90;;
59702;SDS011;45570;48.782;8.332;2023-03-22T09:36:34;1.48;;;0.90;;
59702;SDS011;45570;48.782;8.332;2023-03-22T09:39:03;2.58;;;1.02;;
59702;SDS011;45570;48.782;8.332;2023-03-22T09:41:36;2.13;;;1.23;;
59702;SDS011;45570;48.782;8.332;2023-03-22T09:44:10;1.00;;;0.90;;
59702;SDS011;45570;48.782;8.332;2023-03-22T09:46:42;2.92;;;0.90;;
59702;SDS011;45570;48.782;8.332;2023-03-22T09:49:16;0.88;;;0.82;;
59702;SDS011;45570;48.782;8.332;2023-03-22T09:51:48;1.77;;;0.95;;
59702;SDS011;45570;48.782;8.332;2023-03-22T09:54:18;1.90;;;0.90;;
59702;SDS011;45570;48.782;8.332;2023-03-22T09:56:53;2.83;;;1.17;;
59702;SDS011;45570;48.782;8.332;2023-03-22T09:59:29;2.65;;;1.00;;
59702;SDS011;45570;48.782;8.332;2023-03-22T10:02:11;2.67;;;1.45;;
59702;SDS011;45570;48.782;8.332;2023-03-22T10:04:53;1.10;;;1.00;;
59702;SDS011;45570;48.782;8.332;2023-03-22T10:07:31;1.15;;;1.05;;
59702;SDS011;45570;48.782;8.332;2023-03-22T10:10:08;1.88;;;1.00;;
59702;SDS011;45570;48.782;8.332;2023-03-22T10:12:47;2.28;;;1.00;;
59702;SDS011;45570;48.782;8.332;2023-03-22T10:15:23;1.35;;;0.93;;
59702;SDS011;45570;48.782;8.332;2023-03-22T10:17:55;1.13;;;1.00;;
59702;SDS011;45570;48.782;8.332;2023-03-22T10:20:30;0.93;;;0.90;;
59702;SDS011;45570;48.782;8.332;2023-03-22T10:23:06;3.50;;;1.10;;
59702;SDS011;45570;48.782;8.332;2023-03-22T10:25:41;1.05;;;0.95;;
59702;SDS011;45570;48.782;8.332;2023-03-22T10:28:17;0.90;;;0.90;;
59702;SDS011;45570;48.782;8.332;2023-03-22T10:30:49;1.45;;;0.90;;
59702;SDS011;45570;48.782;8.332;2023-03-22T10:33:24;1.80;;;1.00;;
59702;SDS011;45570;48.782;8.332;2023-03-22T10:36:05;3.33;;;1.00;;
59702;SDS011;45570;48.782;8.332;2023-03-22T10:38:41;1.38;;;1.05;;
59702;SDS011;45570;48.782;8.332;2023-03-22T10:41:14;0.90;;;0.90;;
59702;SDS011;45570;48.782;8.332;2023-03-22T10:43:46;1.90;;;0.95;;
59702;SDS011;45570;48.782;8.332;2023-03-22T10:46:19;1.35;;;0.80;;
59702;SDS011;45570;48.782;8.332;2023-03-22T10:48:50;1.15;;;0.90;;
59702;SDS011;45570;48.782;8.332;2023-03-22T10:51:24;0.80;;;0.80;;
59702;SDS011;45570;48.782;8.332;2023-03-22T10:53:56;1.20;;;0.90;;
59702;SDS011;45570;48.782;8.332;2023-03-22T10:56:27;1.48;;;0.90;;
59702;SDS011;45570;48.782;8.332;2023-03-22T10:58:57;2.30;;;1.05;;
59702;SDS011;45570;48.782;8.332;2023-03-22T11:01:26;2.05;;;0.90;;
59702;SDS011;45570;48.782;8.332;2023-03-22T11:03:59;2.50;;;1.13;;
59702;SDS011;45570;48.782;8.332;2023-03-22T11:06:37;1.98;;;1.15;;
59702;SDS011;45570;48.782;8.332;2023-03-22T11:09:10;0.77;;;0.77;;
59702;SDS011;45570;48.782;8.332;2023-03-22T11:14:18;1.10;;;1.00;;
59702;SDS011;45570;48.782;8.332;2023-03-22T11:16:50;1.45;;;1.08;;
59702;SDS011;45570;48.782;8.332;2023-03-22T11:19:22;1.35;;;0.90;;
59702;SDS011;45570;48.782;8.332;2023-03-22T11:21:53;2.30;;;0.85;;
59702;SDS011;45570;48.782;8.332;2023-03-22T11:24:23;2.17;;;1.00;;
59702;SDS011;45570;48.782;8.332;2023-03-22T11:27:03;1.77;;;0.80;;
59702;SDS011;45570;48.782;8.332;2023-03-22T11:29:41;1.83;;;0.98;;
59702;SDS011;45570;48.782;8.332;2023-03-22T11:32:18;1.42;;;1.15;;
59702;SDS011;45570;48.782;8.332;2023-03-22T11:34:57;1.90;;;1.00;;
59702;SDS011;45570;48.782;8.332;2023-03-22T11:37:27;1.25;;;0.90;;
59702;SDS011;45570;48.782;8.332;2023-03-22T11:39:58;1.33;;;1.17;;
59702;SDS011;45570;48.782;8.332;2023-03-22T11:42:27;1.25;;;0.98;;
59702;SDS011;45570;48.782;8.332;2023-03-22T11:44:57;1.13;;;0.80;;
59702;SDS011;45570;48.782;8.332;2023-03-22T11:47:27;1.27;;;0.93;;
59702;SDS011;45570;48.782;8.332;2023-03-22T11:50:02;0.93;;;0.82;;
59702;SDS011;45570;48.782;8.332;2023-03-22T11:52:34;1.33;;;0.90;;
59702;SDS011;45570;48.782;8.332;2023-03-22T11:55:03;0.93;;;0.90;;
59702;SDS011;45570;48.782;8.332;2023-03-22T11:57:32;1.75;;;0.85;;
59702;SDS011;45570;48.782;8.332;2023-03-22T12:00:06;2.95;;;1.10;;
59702;SDS011;45570;48.782;8.332;2023-03-22T12:02:47;5.20;;;1.10;;
59702;SDS011;45570;48.782;8.332;2023-03-22T12:05:19;4.55;;;1.00;;
59702;SDS011;45570;48.782;8.332;2023-03-22T12:07:51;2.42;;;1.08;;
59702;SDS011;45570;48.782;8.332;2023-03-22T12:10:25;2.95;;;1.05;;
59702;SDS011;45570;48.782;8.332;2023-03-22T12:12:58;2.00;;;1.10;;
59702;SDS011;45570;48.782;8.332;2023-03-22T12:15:30;2.92;;;1.08;;
59702;SDS011;45570;48.782;8.332;2023-03-22T12:18:03;1.33;;;1.10;;
59702;SDS011;45570;48.782;8.332;2023-03-22T12:20:36;1.48;;;1.10;;
59702;SDS011;45570;48.782;8.332;2023-03-22T12:23:11;2.13;;;1.20;;
59702;SDS011;45570;48.782;8.332;2023-03-22T12:25:43;1.67;;;1.38;;
59702;SDS011;45570;48.782;8.332;2023-03-22T12:28:17;1.52;;;1.10;;
59702;SDS011;45570;48.782;8.332;2023-03-22T12:30:50;1.75;;;1.33;;
59702;SDS011;45570;48.782;8.332;2023-03-22T12:33:23;1.90;;;1.15;;
59702;SDS011;45570;48.782;8.332;2023-03-22T12:35:55;4.63;;;1.30;;
59702;SDS011;45570;48.782;8.332;2023-03-22T12:38:28;1.63;;;1.20;;
59702;SDS011;45570;48.782;8.332;2023-03-22T12:41:02;2.33;;;1.52;;
59702;SDS011;45570;48.782;8.332;2023-03-22T12:43:37;1.67;;;1.23;;
59702;SDS011;45570;48.782;8.332;2023-03-22T12:46:14;2.55;;;1.30;;
59702;SDS011;45570;48.782;8.332;2023-03-22T12:48:46;1.25;;;1.15;;
59702;SDS011;45570;48.782;8.332;2023-03-22T12:51:18;3.22;;;1.63;;
59702;SDS011;45570;48.782;8.332;2023-03-22T12:53:47;4.35;;;1.55;;
59702;SDS011;45570;48.782;8.332;2023-03-22T12:56:20;2.83;;;1.17;;
59702;SDS011;45570;48.782;8.332;2023-03-22T12:58:52;1.15;;;1.02;;
59702;SDS011;45570;48.782;8.332;2023-03-22T13:01:28;2.03;;;1.23;;
59702;SDS011;45570;48.782;8.332;2023-03-22T13:06:57;1.25;;;0.90;;
59702;SDS011;45570;48.782;8.332;2023-03-22T13:09:38;1.92;;;1.17;;
59702;SDS011;45570;48.782;8.332;2023-03-22T13:15:16;2.00;;;1.30;;
59702;SDS011;45570;48.782;8.332;2023-03-22T13:21:07;1.95;;;1.35;;
59702;SDS011;45570;48.782;8.332;2023-03-22T13:23:51;2.95;;;1.70;;
59702;SDS011;45570;48.782;8.332;2023-03-22T13:26:24;2.53;;;1.40;;
59702;SDS011;45570;48.782;8.332;2023-03-22T13:28:59;6.75;;;1.63;;
59702;SDS011;45570;48.782;8.332;2023-03-22T13:31:40;1.30;;;1.20;;
59702;SDS011;45570;48.782;8.332;2023-03-22T13:34:17;1.85;;;1.27;;
59702;SDS011;45570;48.782;8.332;2023-03-22T13:36:49;2.72;;;1.30;;
59702;SDS011;45570;48.782;8.332;2023-03-22T13:39:20;4.22;;;1.30;;
59702;SDS011;45570;48.782;8.332;2023-03-22T13:42:01;1.27;;;1.10;;
59702;SDS011;45570;48.782;8.332;2023-03-22T13:44:43;1.98;;;1.30;;
59702;SDS011;45570;48.782;8.332;2023-03-22T13:47:30;1.67;;;1.33;;
59702;SDS011;45570;48.782;8.332;2023-03-22T13:50:01;1.00;;;1.00;;
59702;SDS011;45570;48.782;8.332;2023-03-22T13:52:37;1.55;;;1.30;;
59702;SDS011;45570;48.782;8.332;2023-03-22T13:55:13;2.20;;;1.40;;
59702;SDS011;45570;48.782;8.332;2023-03-22T13:58:02;5.18;;;1.10;;
59702;SDS011;45570;48.782;8.332;2023-03-22T14:00:32;1.42;;;1.30;;
59702;SDS011;45570;48.782;8.332;2023-03-22T14:03:07;1.65;;;1.40;;
59702;SDS011;45570;48.782;8.332;2023-03-22T14:05:41;1.52;;;1.42;;
59702;SDS011;45570;48.782;8.332;2023-03-22T14:08:16;3.55;;;1.50;;
59702;SDS011;45570;48.782;8.332;2023-03-22T14:10:51;2.15;;;1.20;;
59702;SDS011;45570;48.782;8.332;2023-03-22T14:13:27;2.35;;;1.50;;
59702;SDS011;45570;48.782;8.332;2023-03-22T14:16:02;2.42;;;1.45;;
59702;SDS011;45570;48.782;8.332;2023-03-22T14:21:10;2.47;;;1.33;;
59702;SDS011;45570;48.782;8.332;2023-03-22T14:23:41;1.77;;;1.42;;
59702;SDS011;45570;48.782;8.332;2023-03-22T14:26:13;3.15;;;1.23;;
59702;SDS011;45570;48.782;8.332;2023-03-22T14:28:43;2.28;;;1.33;;
59702;SDS011;45570;48.782;8.332;2023-03-22T14:31:16;2.45;;;1.48;;
59702;SDS011;45570;48.782;8.332;2023-03-22T14:33:48;2.45;;;1.48;;
59702;SDS011;45570;48.782;8.332;2023-03-22T14:36:16;1.50;;;1.40;;
59702;SDS011;45570;48.782;8.332;2023-03-22T14:38:45;1.80;;;1.40;;
59702;SDS011;45570;48.782;8.332;2023-03-22T14:41:15;1.95;;;1.30;;
59702;SDS011;45570;48.782;8.332;2023-03-22T14:43:45;3.38;;;1.38;;
59702;SDS011;45570;48.782;8.332;2023-03-22T14:46:15;3.22;;;1.38;;
59702;SDS011;45570;48.782;8.332;2023-03-22T14:48:50;3.92;;;1.50;;
59702;SDS011;45570;48.782;8.332;2023-03-22T14:51:20;3.00;;;1.50;;
59702;SDS011;45570;48.782;8.332;2023-03-22T14:53:50;3.83;;;1.30;;
59702;SDS011;45570;48.782;8.332;2023-03-22T14:56:19;2.17;;;1.50;;
59702;SDS011;45570;48.782;8.332;2023-03-22T14:58:49;1.58;;;1.38;;
59702;SDS011;45570;48.782;8.332;2023-03-22T15:01:20;2.40;;;1.30;;
59702;SDS011;45570;48.782;8.332;2023-03-22T15:03:53;1.35;;;1.25;;
59702;SDS011;45570;48.782;8.332;2023-03-22T15:06:23;3.22;;;1.30;;
59702;SDS011;45570;48.782;8.332;2023-03-22T15:08:52;1.27;;;1.17;;
59702;SDS011;45570;48.782;8.332;2023-03-22T15:11:20;1.23;;;1.13;;
59702;SDS011;45570;48.782;8.332;2023-03-22T15:13:49;4.95;;;1.10;;
59702;SDS011;45570;48.782;8.332;2023-03-22T15:16:18;3.45;;;1.48;;
59702;SDS011;45570;48.782;8.332;2023-03-22T15:18:47;1.65;;;1.10;;
59702;SDS011;45570;48.782;8.332;2023-03-22T15:21:17;5.72;;;1.67;;
59702;SDS011;45570;48.782;8.332;2023-03-22T15:23:46;2.95;;;1.35;;
59702;SDS011;45570;48.782;8.332;2023-03-22T15:26:16;3.65;;;1.50;;
59702;SDS011;45570;48.782;8.332;2023-03-22T15:28:50;1.42;;;1.10;;
59702;SDS011;45570;48.782;8.332;2023-03-22T15:31:23;1.85;;;1.30;;
59702;SDS011;45570;48.782;8.332;2023-03-22T15:33:57;3.05;;;1.23;;
59702;SDS011;45570;48.782;8.332;2023-03-22T15:36:28;4.40;;;1.48;;
59702;SDS011;45570;48.782;8.332;2023-03-22T15:38:59;2.50;;;1.35;;
59702;SDS011;45570;48.782;8.332;2023-03-22T15:41:33;1.17;;;1.10;;
59702;SDS011;45570;48.782;8.332;2023-03-22T15:44:13;1.52;;;1.33;;
59702;SDS011;45570;48.782;8.332;2023-03-22T15:46:49;3.20;;;1.20;;
59702;SDS011;45570;48.782;8.332;2023-03-22T15:49:21;1.88;;;1.25;;
59702;SDS011;45570;48.782;8.332;2023-03-22T15:51:55;4.43;;;1.40;;
59702;SDS011;45570;48.782;8.332;2023-03-22T15:54:34;1.92;;;1.30;;
59702;SDS011;45570;48.782;8.332;2023-03-22T15:57:08;1.42;;;1.15;;
59702;SDS011;45570;48.782;8.332;2023-03-22T15:59:48;1.30;;;1.13;;
59702;SDS011;45570;48.782;8.332;2023-03-22T16:02:25;2.22;;;1.15;;
59702;SDS011;45570;48.782;8.332;2023-03-22T16:04:55;1.33;;;1.02;;
59702;SDS011;45570;48.782;8.332;2023-03-22T16:07:27;2.10;;;1.48;;